createdAt,value
2022-09-06T00:01:35.680Z,84.91
2022-09-06T00:04:06.641Z,85.47
2022-09-06T00:06:36.684Z,85.25
2022-09-06T00:09:07.302Z,85.60
2022-09-06T00:11:37.749Z,86.22
2022-09-06T00:14:07.970Z,85.81
2022-09-06T00:16:41.028Z,85.43
2022-09-06T00:19:10.734Z,84.73
2022-09-06T00:21:40.982Z,84.11
2022-09-06T00:24:10.469Z,84.71
2022-09-06T00:26:40.166Z,84.97
2022-09-06T00:29:09.923Z,83.03
2022-09-06T00:31:39.588Z,82.14
2022-09-06T00:34:09.651Z,82.27
2022-09-06T00:36:40.755Z,81.65
2022-09-06T00:39:12.505Z,85.95
2022-09-06T00:41:43.977Z,85.43
2022-09-06T00:44:14.000Z,87.00
2022-09-06T00:46:46.812Z,86.91
2022-09-06T00:49:24.743Z,86.01
2022-09-06T00:52:00.706Z,87.21
2022-09-06T00:54:32.110Z,87.00
2022-09-06T00:57:02.526Z,86.82
2022-09-06T00:59:35.393Z,86.09
2022-09-06T01:02:06.655Z,85.01
2022-09-06T01:04:39.342Z,84.22
2022-09-06T01:07:29.451Z,84.74
2022-09-06T01:10:33.957Z,83.23
2022-09-06T01:13:29.980Z,83.67
2022-09-06T01:16:27.866Z,85.02
2022-09-06T01:19:28.651Z,84.48
2022-09-06T01:22:23.449Z,86.07
2022-09-06T01:25:02.177Z,84.83
2022-09-06T01:27:45.852Z,85.02
2022-09-06T01:30:20.321Z,85.37
2022-09-06T01:33:26.305Z,84.37
2022-09-06T01:36:03.911Z,86.79
2022-09-06T01:38:34.232Z,88.35
2022-09-06T01:41:05.584Z,88.44
2022-09-06T01:43:45.126Z,86.78
2022-09-06T01:46:30.754Z,86.98
2022-09-06T01:49:15.768Z,86.83
2022-09-06T01:52:08.191Z,86.37
2022-09-06T01:54:52.560Z,85.25
2022-09-06T01:57:44.120Z,85.35
2022-09-06T02:00:18.588Z,86.44
2022-09-06T02:03:09.402Z,87.02
2022-09-06T02:05:50.074Z,87.20
2022-09-06T02:08:36.370Z,90.04
2022-09-06T02:11:10.040Z,90.22
2022-09-06T02:13:49.299Z,87.70
2022-09-06T02:16:23.568Z,87.63
2022-09-06T02:19:24.929Z,89.26
2022-09-06T02:21:57.751Z,89.34
2022-09-06T02:24:31.630Z,90.08
2022-09-06T02:27:01.825Z,89.05
2022-09-06T02:29:36.731Z,89.20
2022-09-06T02:32:11.592Z,91.34
2022-09-06T02:34:42.213Z,90.28
2022-09-06T02:37:13.784Z,89.57
2022-09-06T02:39:44.217Z,89.96
2022-09-06T02:42:16.311Z,91.18
2022-09-06T02:44:46.027Z,92.53
2022-09-06T02:47:16.366Z,93.49
2022-09-06T02:49:46.453Z,93.88
2022-09-06T02:52:16.270Z,94.08
2022-09-06T02:54:46.391Z,94.80
2022-09-06T02:57:16.403Z,93.44
2022-09-06T02:59:47.465Z,94.81
2022-09-06T03:02:18.586Z,95.70
2022-09-06T03:04:48.492Z,95.07
2022-09-06T03:07:17.799Z,95.14
2022-09-06T03:09:47.247Z,96.19
2022-09-06T03:12:16.497Z,95.36
2022-09-06T03:14:46.635Z,94.30
2022-09-06T03:17:16.386Z,93.41
2022-09-06T03:19:47.062Z,91.86
2022-09-06T03:22:16.767Z,91.52
2022-09-06T03:24:46.273Z,92.45
2022-09-06T03:27:16.404Z,92.61
2022-09-06T03:29:48.723Z,92.01
2022-09-06T03:32:18.055Z,92.42
2022-09-06T03:34:47.439Z,94.47
2022-09-06T03:37:17.696Z,95.98
2022-09-06T03:39:47.466Z,93.98
2022-09-06T03:42:17.272Z,92.77
2022-09-06T03:44:47.034Z,92.85
2022-09-06T03:47:19.569Z,92.84
2022-09-06T03:49:49.528Z,95.35
2022-09-06T03:52:19.364Z,95.81
2022-09-06T03:54:48.833Z,93.92
2022-09-06T03:57:18.235Z,95.04
2022-09-06T03:59:47.765Z,96.24
2022-09-06T04:02:17.198Z,96.44
2022-09-06T04:04:46.855Z,96.52
2022-09-06T04:07:16.145Z,96.00
2022-09-06T04:09:45.237Z,96.96
2022-09-06T04:12:14.358Z,96.84
2022-09-06T04:14:43.641Z,97.20
2022-09-06T04:17:12.912Z,96.84
2022-09-06T04:19:41.957Z,96.03
2022-09-06T04:22:11.229Z,95.24
2022-09-06T04:24:40.113Z,95.30
2022-09-06T04:27:09.411Z,95.45
2022-09-06T04:29:38.624Z,95.25
2022-09-06T04:32:08.089Z,95.62
2022-09-06T04:34:37.640Z,95.08
2022-09-06T04:37:07.361Z,94.87
2022-09-06T04:39:36.677Z,94.52
2022-09-06T04:42:06.301Z,94.06
2022-09-06T04:44:35.751Z,93.45
2022-09-06T04:47:10.380Z,92.87
2022-09-06T04:49:40.077Z,92.33
2022-09-06T04:52:09.222Z,90.60
2022-09-06T04:54:38.417Z,88.19
2022-09-06T04:57:08.098Z,86.57
2022-09-06T04:59:37.939Z,86.60
2022-09-06T05:02:07.559Z,84.51
2022-09-06T05:04:36.815Z,84.03
2022-09-06T05:07:09.065Z,82.78
2022-09-06T05:09:37.988Z,82.35
2022-09-06T05:12:07.549Z,81.32
2022-09-06T05:14:36.779Z,80.64
2022-09-06T05:17:06.743Z,80.22
2022-09-06T05:19:36.621Z,79.73
2022-09-06T05:22:05.624Z,81.38
2022-09-06T05:24:34.488Z,79.74
2022-09-06T05:27:05.318Z,77.84
2022-09-06T05:29:35.133Z,77.26
2022-09-06T05:32:04.029Z,73.72
2022-09-06T05:34:33.223Z,73.45
2022-09-06T05:37:02.014Z,72.43
2022-09-06T05:39:31.760Z,69.29
2022-09-06T05:42:06.956Z,68.38
2022-09-06T05:44:37.494Z,70.12
2022-09-06T05:47:07.210Z,68.32
2022-09-06T05:49:35.980Z,71.72
2022-09-06T05:52:05.621Z,68.37
2022-09-06T05:54:34.876Z,68.73
2022-09-06T05:57:04.481Z,66.63
2022-09-06T05:59:33.396Z,68.19
2022-09-06T06:02:07.052Z,65.42
2022-09-06T06:04:37.111Z,64.69
2022-09-06T06:07:06.296Z,62.90
2022-09-06T06:09:35.365Z,62.85
2022-09-06T06:12:05.105Z,62.70
2022-09-06T06:14:35.271Z,62.59
2022-09-06T06:17:04.923Z,61.43
2022-09-06T06:19:33.798Z,60.75
2022-09-06T06:22:03.432Z,59.05
2022-09-06T06:24:32.123Z,59.84
2022-09-06T06:27:01.827Z,58.91
2022-09-06T06:29:32.164Z,59.33
2022-09-06T06:32:01.316Z,54.78
2022-09-06T06:34:30.147Z,55.46
2022-09-06T06:36:59.383Z,53.72
2022-09-06T06:39:28.367Z,54.26
2022-09-06T06:41:57.831Z,56.66
2022-09-06T06:44:28.874Z,55.10
2022-09-06T06:46:59.208Z,52.77
2022-09-06T06:49:28.683Z,52.01
2022-09-06T06:51:57.596Z,52.74
2022-09-06T06:54:26.583Z,54.12
2022-09-06T06:56:55.888Z,51.29
2022-09-06T06:59:25.083Z,50.33
2022-09-06T07:01:54.728Z,51.00
2022-09-06T07:04:23.799Z,51.32
2022-09-06T07:12:36.478Z,51.24
2022-09-06T07:15:06.145Z,51.26
2022-09-06T07:17:36.091Z,49.91
2022-09-06T07:20:12.651Z,49.58
2022-09-06T07:22:42.360Z,49.12
2022-09-06T07:25:17.613Z,48.94
2022-09-06T07:27:50.507Z,48.53
2022-09-06T07:30:20.665Z,48.58
2022-09-06T07:32:49.775Z,47.21
2022-09-06T07:35:25.551Z,47.20
2022-09-06T07:38:00.593Z,46.81
2022-09-06T07:40:31.704Z,46.12
2022-09-06T07:43:00.756Z,45.65
2022-09-06T07:45:32.610Z,45.39
2022-09-06T07:48:04.322Z,46.20
2022-09-06T07:50:53.533Z,46.17
2022-09-06T07:53:30.612Z,44.56
2022-09-06T07:56:02.181Z,44.75
2022-09-06T07:58:31.734Z,44.91
2022-09-06T08:01:30.972Z,45.24
2022-09-06T08:04:08.926Z,43.38
2022-09-06T08:09:30.468Z,44.16
2022-09-06T08:12:00.183Z,43.10
2022-09-06T08:14:29.092Z,43.47
2022-09-06T08:16:57.893Z,43.47
2022-09-06T08:19:26.759Z,42.47
2022-09-06T08:21:56.354Z,41.85
2022-09-06T08:24:25.857Z,42.27
2022-09-06T08:26:54.639Z,41.20
2022-09-06T08:29:24.057Z,41.05
2022-09-06T08:31:53.231Z,40.52
2022-09-06T08:34:21.823Z,41.13
2022-09-06T08:36:50.878Z,41.34
2022-09-06T08:39:19.709Z,40.70
2022-09-06T08:41:54.104Z,39.94
2022-09-06T08:47:16.289Z,38.87
2022-09-06T08:49:54.970Z,39.58
2022-09-06T08:53:06.160Z,39.46
2022-09-06T08:55:39.587Z,39.60
2022-09-06T08:58:30.299Z,38.93
2022-09-06T09:01:05.184Z,39.61
2022-09-06T09:03:40.053Z,38.84
2022-09-06T09:06:10.703Z,38.57
2022-09-06T09:08:59.637Z,37.60
2022-09-06T09:11:30.327Z,36.98
2022-09-06T09:13:59.645Z,39.24
2022-09-06T09:16:28.633Z,38.54
2022-09-06T09:19:04.517Z,38.04
2022-09-06T09:21:40.890Z,38.23
2022-09-06T09:24:12.274Z,39.22
2022-09-06T09:26:47.082Z,38.57
2022-09-06T09:29:17.582Z,38.59
2022-09-06T09:31:53.411Z,37.73
2022-09-06T09:34:52.810Z,38.33
2022-09-06T09:40:18.176Z,35.97
2022-09-06T09:42:47.055Z,35.77
2022-09-06T09:45:31.518Z,34.64
2022-09-06T09:48:28.200Z,34.30
2022-09-06T09:50:57.251Z,32.94
2022-09-06T09:53:27.375Z,34.93
2022-09-06T09:55:58.154Z,36.09
2022-09-06T09:58:35.699Z,37.10
2022-09-06T10:01:18.766Z,36.68
2022-09-06T10:09:37.192Z,31.86
2022-09-06T10:12:07.004Z,31.41
2022-09-06T10:14:48.829Z,30.38
2022-09-06T10:17:37.876Z,30.07
2022-09-06T10:20:10.125Z,26.74
2022-09-06T10:22:38.724Z,26.83
2022-09-06T10:25:19.118Z,24.47
2022-09-06T10:28:32.117Z,25.12
2022-09-06T10:31:27.504Z,25.69
2022-09-06T10:34:11.030Z,26.62
2022-09-06T10:36:46.093Z,27.28
2022-09-06T10:39:44.045Z,28.19
2022-09-06T10:42:15.817Z,28.74
2022-09-06T10:45:09.184Z,30.19
2022-09-06T10:47:55.893Z,30.45
2022-09-06T10:50:53.353Z,31.18
2022-09-06T10:53:22.555Z,31.47
2022-09-06T10:56:06.824Z,32.59
2022-09-06T11:02:04.109Z,32.38
2022-09-06T11:07:41.155Z,36.46
2022-09-06T11:10:27.959Z,36.00
2022-09-06T11:13:08.049Z,37.62
2022-09-06T11:16:06.470Z,37.42
2022-09-06T11:19:07.361Z,37.76
2022-09-06T11:21:36.051Z,39.65
2022-09-06T11:24:17.328Z,40.50
2022-09-06T11:27:11.963Z,40.47
2022-09-06T11:29:43.828Z,37.96
2022-09-06T11:32:41.242Z,36.46
2022-09-06T11:35:22.992Z,34.05
2022-09-06T11:38:20.145Z,33.04
2022-09-06T11:41:06.318Z,31.70
2022-09-06T11:43:53.297Z,31.95
2022-09-06T11:46:34.005Z,31.77
2022-09-06T11:49:11.352Z,32.78
2022-09-06T11:51:43.787Z,32.79
2022-09-06T11:54:15.829Z,32.65
2022-09-06T11:56:47.443Z,32.06
2022-09-06T11:59:19.313Z,30.93
2022-09-06T12:01:56.792Z,31.64
2022-09-06T12:05:01.251Z,30.50
2022-09-06T12:07:32.576Z,30.04
2022-09-06T12:10:32.076Z,28.82
2022-09-06T12:13:02.481Z,27.84
2022-09-06T12:15:44.958Z,26.88
2022-09-06T12:18:48.615Z,26.23
2022-09-06T12:21:38.404Z,25.82
2022-09-06T12:24:35.555Z,26.33
2022-09-06T12:27:25.944Z,26.90
2022-09-06T12:29:59.815Z,27.01
2022-09-06T12:32:47.379Z,28.47
2022-09-06T12:38:12.397Z,30.56
2022-09-06T12:40:48.057Z,31.77
2022-09-06T12:43:19.393Z,32.35
2022-09-06T12:45:51.432Z,32.80
2022-09-06T12:48:28.881Z,32.72
2022-09-06T12:51:03.616Z,33.03
2022-09-06T12:53:34.542Z,33.87
2022-09-06T12:56:09.145Z,34.72
2022-09-06T12:58:39.741Z,34.61
2022-09-06T13:01:15.842Z,33.37
2022-09-06T13:03:54.416Z,33.16
2022-09-06T13:06:27.159Z,33.33
2022-09-06T13:08:58.169Z,32.28
2022-09-06T13:11:37.403Z,31.55
2022-09-06T13:14:17.762Z,29.32
2022-09-06T13:16:52.458Z,29.14
2022-09-06T13:19:38.825Z,27.71
2022-09-06T13:22:11.409Z,27.97
2022-09-06T13:24:49.369Z,27.78
2022-09-06T13:27:36.210Z,26.69
2022-09-06T13:30:07.240Z,26.50
2022-09-06T13:32:38.357Z,26.69
2022-09-06T13:35:07.527Z,27.00
2022-09-06T13:37:39.707Z,28.32
2022-09-06T13:40:53.811Z,30.92
2022-09-06T13:43:27.703Z,32.46
2022-09-06T13:46:09.362Z,32.66
2022-09-06T13:48:40.428Z,32.62
2022-09-06T13:51:09.997Z,33.32
2022-09-06T13:53:38.706Z,34.05
2022-09-06T13:56:09.081Z,35.30
2022-09-06T13:58:38.947Z,35.83
2022-09-06T14:01:10.887Z,34.00
2022-09-06T14:03:42.552Z,33.06
2022-09-06T14:06:11.620Z,34.09
2022-09-06T14:11:29.721Z,35.76
2022-09-06T14:13:59.758Z,36.30
2022-09-06T14:16:28.631Z,36.24
2022-09-06T14:18:58.126Z,36.09
2022-09-06T14:21:27.087Z,36.33
2022-09-06T14:23:58.882Z,36.58
2022-09-06T14:26:31.927Z,37.97
2022-09-06T14:29:01.042Z,37.54
2022-09-06T14:31:30.103Z,38.15
2022-09-06T14:34:00.240Z,35.43
2022-09-06T14:36:31.781Z,36.64
2022-09-06T14:39:02.358Z,37.23
2022-09-06T14:41:31.096Z,37.45
2022-09-06T14:44:00.527Z,36.20
2022-09-06T14:46:30.453Z,35.72
2022-09-06T14:49:06.327Z,36.97
2022-09-06T14:51:37.219Z,36.47
2022-09-06T14:54:09.500Z,36.69
2022-09-06T14:56:40.680Z,36.55
2022-09-06T14:59:11.067Z,36.97
2022-09-06T15:01:41.512Z,36.42
2022-09-06T15:04:12.228Z,37.05
2022-09-06T15:06:45.341Z,37.93
2022-09-06T15:09:17.817Z,38.06
2022-09-06T15:11:49.380Z,38.20
2022-09-06T15:14:26.396Z,37.56
2022-09-06T15:16:59.846Z,38.33
2022-09-06T15:19:31.298Z,39.26
2022-09-06T15:22:01.011Z,40.07
2022-09-06T15:24:30.817Z,40.37
2022-09-06T15:27:00.232Z,40.44
2022-09-06T15:29:29.312Z,40.96
2022-09-06T15:31:58.204Z,40.89
2022-09-06T15:34:27.310Z,41.78
2022-09-06T15:36:57.604Z,42.77
2022-09-06T15:39:26.351Z,42.69
2022-09-06T15:41:55.812Z,42.76
2022-09-06T15:44:25.015Z,43.43
2022-09-06T15:46:58.518Z,44.43
2022-09-06T15:49:32.248Z,45.72
2022-09-06T15:52:03.509Z,44.88
2022-09-06T15:54:50.782Z,46.04
2022-09-06T15:57:19.781Z,46.89
2022-09-06T15:59:48.988Z,47.46
2022-09-06T16:02:18.614Z,47.96
2022-09-06T16:04:47.675Z,49.06
2022-09-06T16:07:16.463Z,48.86
2022-09-06T16:09:45.870Z,50.32
2022-09-06T16:12:14.756Z,50.13
2022-09-06T16:14:43.959Z,49.90
2022-09-06T16:17:13.312Z,51.92
2022-09-06T16:19:42.459Z,50.72
2022-09-06T16:22:11.649Z,53.62
2022-09-06T16:24:40.846Z,53.40
2022-09-06T16:27:09.737Z,53.77
2022-09-06T16:29:39.244Z,54.99
2022-09-06T16:32:08.436Z,54.71
2022-09-06T16:34:41.220Z,55.75
2022-09-06T16:37:10.413Z,56.97
2022-09-06T16:39:39.618Z,57.39
2022-09-06T16:42:08.715Z,57.35
2022-09-06T16:44:38.941Z,57.71
2022-09-06T16:47:08.541Z,58.26
2022-09-06T16:49:37.738Z,59.08
2022-09-06T16:52:06.934Z,58.51
2022-09-06T16:54:35.633Z,58.69
2022-09-06T16:57:05.231Z,57.31
2022-09-06T16:59:34.534Z,57.79
2022-09-06T17:02:03.730Z,58.67
2022-09-06T17:04:32.612Z,61.61
2022-09-06T17:07:01.848Z,58.96
2022-09-06T17:09:34.802Z,58.53
2022-09-06T17:12:04.095Z,58.30
2022-09-06T17:14:32.786Z,59.94
2022-09-06T17:17:07.894Z,61.09
2022-09-06T17:19:38.508Z,60.83
2022-09-06T17:22:12.858Z,61.36
2022-09-06T17:24:42.989Z,62.08
2022-09-06T17:27:11.883Z,62.20
2022-09-06T17:29:40.769Z,62.06
2022-09-06T17:32:10.788Z,63.07
2022-09-06T17:34:40.880Z,64.22
2022-09-06T17:37:09.692Z,65.76
2022-09-06T17:39:39.237Z,64.34
2022-09-06T17:42:09.066Z,62.27
2022-09-06T17:44:38.102Z,65.99
2022-09-06T17:47:12.970Z,67.39
2022-09-06T17:49:43.583Z,66.58
2022-09-06T17:52:14.194Z,67.96
2022-09-06T17:54:44.419Z,68.38
2022-09-06T17:57:13.202Z,67.88
2022-09-06T17:59:42.097Z,64.59
2022-09-06T18:02:11.296Z,68.86
2022-09-06T18:04:40.026Z,70.22
2022-09-06T18:07:08.971Z,71.74
2022-09-06T18:09:38.172Z,70.04
2022-09-06T18:12:07.981Z,72.65
2022-09-06T18:14:37.279Z,73.48
2022-09-06T18:17:05.970Z,73.45
2022-09-06T18:19:34.657Z,73.92
2022-09-06T18:22:04.873Z,73.53
2022-09-06T18:24:33.862Z,72.85
2022-09-06T18:27:03.471Z,72.62
2022-09-06T18:29:33.249Z,73.82
2022-09-06T18:32:02.049Z,73.62
2022-09-06T18:34:30.880Z,73.59
2022-09-06T18:36:59.653Z,75.12
2022-09-06T18:39:28.838Z,76.33
2022-09-06T18:42:01.075Z,76.55
2022-09-06T18:44:33.077Z,76.81
2022-09-06T18:47:06.023Z,76.73
2022-09-06T18:49:35.571Z,76.97
2022-09-06T18:52:06.191Z,76.51
2022-09-06T18:54:35.299Z,78.19
2022-09-06T18:57:04.701Z,78.08
2022-09-06T18:59:33.383Z,77.03
2022-09-06T19:02:02.242Z,77.14
2022-09-06T19:04:31.475Z,78.04
2022-09-06T19:07:03.016Z,77.44
2022-09-06T19:09:31.916Z,77.89
2022-09-06T19:12:00.701Z,79.44
2022-09-06T19:14:29.901Z,78.61
2022-09-06T19:16:58.600Z,77.14
2022-09-06T19:19:27.577Z,77.24
2022-09-06T19:21:56.366Z,76.53
2022-09-06T19:24:25.973Z,74.01
2022-09-06T19:26:55.580Z,75.84
2022-09-06T19:29:24.267Z,80.29
2022-09-06T19:31:53.298Z,81.32
2022-09-06T19:34:22.359Z,80.76
2022-09-06T19:36:55.573Z,82.03
2022-09-06T19:39:32.300Z,81.55
2022-09-06T19:42:02.491Z,82.20
2022-09-06T19:44:31.433Z,79.63
2022-09-06T19:47:00.650Z,77.61
2022-09-06T19:49:31.135Z,78.57
2022-09-06T19:52:00.153Z,82.42
2022-09-06T19:54:29.042Z,81.46
2022-09-06T19:56:58.350Z,76.56
2022-09-06T19:59:27.645Z,76.62
2022-09-06T20:01:56.462Z,76.64
2022-09-06T20:04:27.347Z,78.18
2022-09-06T20:06:56.260Z,77.52
2022-09-06T20:09:25.453Z,77.69
2022-09-06T20:11:54.248Z,79.17
2022-09-06T20:14:24.878Z,80.63
2022-09-06T20:16:53.727Z,80.93
2022-09-06T20:19:22.511Z,79.99
2022-09-06T20:21:52.367Z,78.83
2022-09-06T20:24:21.419Z,79.65
2022-09-06T20:26:52.672Z,81.10
2022-09-06T20:29:21.288Z,82.76
2022-09-06T20:31:50.163Z,84.62
2022-09-06T20:34:19.467Z,85.63
2022-09-06T20:36:48.681Z,84.96
2022-09-06T20:39:17.981Z,87.39
2022-09-06T20:41:46.974Z,86.43
2022-09-06T20:44:15.763Z,86.19
2022-09-06T20:46:45.180Z,87.07
2022-09-06T20:49:15.991Z,86.97
2022-09-06T20:51:45.185Z,86.48
2022-09-06T20:54:14.290Z,84.08
2022-09-06T20:56:43.707Z,83.83
2022-09-06T20:59:13.897Z,85.15
2022-09-06T21:01:45.974Z,83.95
2022-09-06T21:04:17.152Z,83.64
2022-09-06T21:06:46.919Z,81.65
2022-09-06T21:09:16.559Z,82.15
2022-09-06T21:11:45.979Z,82.74
2022-09-06T21:14:15.260Z,82.60
2022-09-06T21:16:44.492Z,82.60
2022-09-06T21:19:13.736Z,84.37
2022-09-06T21:21:43.657Z,83.35
2022-09-06T21:24:13.429Z,83.18
2022-09-06T21:26:45.024Z,83.53
2022-09-06T21:29:14.633Z,84.22
2022-09-06T21:31:43.815Z,83.36
2022-09-06T21:34:16.940Z,82.93
2022-09-06T21:36:47.003Z,83.31
2022-09-06T21:39:16.953Z,83.43
2022-09-06T21:41:47.378Z,83.38
2022-09-06T21:44:16.805Z,82.87
2022-09-06T21:46:46.115Z,82.92
2022-09-06T21:49:16.021Z,86.10
2022-09-06T21:51:45.199Z,89.79
2022-09-06T21:54:15.294Z,88.98
2022-09-06T21:56:44.617Z,90.40
2022-09-06T21:59:14.033Z,91.14
2022-09-06T22:01:45.271Z,91.49
2022-09-06T22:04:15.002Z,90.88
2022-09-06T22:06:44.080Z,90.29
2022-09-06T22:09:14.349Z,90.78
2022-09-06T22:11:44.802Z,91.58
2022-09-06T22:14:15.326Z,90.54
2022-09-06T22:16:45.361Z,89.20
2022-09-06T22:19:14.549Z,90.40
2022-09-06T22:21:43.882Z,91.87
2022-09-06T22:24:14.875Z,92.15
2022-09-06T22:26:50.229Z,92.58
2022-09-06T22:29:21.546Z,92.60
2022-09-06T22:31:51.570Z,91.90
2022-09-06T22:34:21.460Z,91.52
2022-09-06T22:36:51.520Z,91.63
2022-09-06T22:39:20.643Z,93.14
2022-09-06T22:41:49.965Z,93.89
2022-09-06T22:44:19.758Z,91.32
2022-09-06T22:46:54.035Z,88.46
2022-09-06T22:49:29.275Z,87.42
2022-09-06T22:51:59.580Z,87.69
2022-09-06T22:54:29.661Z,89.52
2022-09-06T22:57:00.379Z,92.13
2022-09-06T22:59:30.994Z,92.54
2022-09-06T23:02:01.499Z,91.80
2022-09-06T23:04:33.128Z,92.77
2022-09-06T23:07:03.300Z,92.20
2022-09-06T23:09:32.513Z,91.81
2022-09-06T23:12:02.672Z,92.39
2022-09-06T23:14:33.961Z,92.16
2022-09-06T23:17:11.298Z,93.27
2022-09-06T23:19:41.345Z,93.20
2022-09-06T23:22:12.495Z,92.68
2022-09-06T23:24:42.041Z,91.37
2022-09-06T23:27:11.952Z,90.22
2022-09-06T23:29:44.322Z,88.31
2022-09-06T23:32:14.119Z,87.38
2022-09-06T23:34:44.183Z,89.71
2022-09-06T23:37:13.847Z,89.42
2022-09-06T23:39:43.796Z,89.91
2022-09-06T23:42:13.802Z,89.70
2022-09-06T23:44:43.552Z,89.88
2022-09-06T23:47:13.622Z,89.59
2022-09-06T23:49:46.003Z,89.77
2022-09-06T23:52:15.549Z,89.43
2022-09-06T23:54:45.943Z,89.15
2022-09-06T23:57:15.430Z,89.24
2022-09-06T23:59:45.510Z,87.92
